EXS4KU EGCC-LTBS
Flight info
| Callsign | EXS4KU |
|---|---|
| Flight time | N/A |
| Altitude | 35000 |
| Route | SONEX UL975 DESIG L603 DOLAS DCT NAVPI DCT MISGO DCT TIVUN DCT ESAMA DCT OSBIT DCT TENLO DCT LAMSI DCT BARUG DCT SASAL DCT SOGMO DCT BABIT DCT KOTUS DCT OKLOP DCT NISVA DCT RODIP UN131 PIBOM DCT BELGI UN131 DUGLA UT350 NEXAM |
| Aircraft | A321/M-SDE3FGHIRWY/LB1 |
Departure
| Time | N/A |
|---|---|
| Airport | Manchester Airport (EGCC) |
Arrival
| Time | 2026-04-25 16:59 |
|---|---|
| Airport | Dalaman International Airport (LTBS) |
| Time | Latitude | Longitude | Altitude | Speed | Heading |
|---|---|---|---|---|---|
| 2026-04-25 16:02 | 41.18754 | 24.97673 | 35020 ft | 451 kts | 135° |
| 2026-04-25 16:02 | 41.14046 | 25.03199 | 35023 ft | 451 kts | 135° |
| 2026-04-25 16:03 | 41.09377 | 25.08664 | 35021 ft | 450 kts | 135° |
| 2026-04-25 16:03 | 41.04676 | 25.14164 | 35021 ft | 450 kts | 135° |
| 2026-04-25 16:04 | 40.99971 | 25.19668 | 35019 ft | 450 kts | 135° |
| 2026-04-25 16:04 | 40.95293 | 25.25119 | 35026 ft | 450 kts | 135° |
| 2026-04-25 16:05 | 40.90604 | 25.30589 | 35024 ft | 447 kts | 132° |
| 2026-04-25 16:06 | 40.84283 | 25.39589 | 35025 ft | 444 kts | 129° |
| 2026-04-25 16:06 | 40.80110 | 25.45565 | 35021 ft | 444 kts | 129° |
| 2026-04-25 16:07 | 40.75920 | 25.51560 | 35020 ft | 444 kts | 129° |
| 2026-04-25 16:07 | 40.71719 | 25.57552 | 35012 ft | 444 kts | 129° |
| 2026-04-25 16:08 | 40.67519 | 25.63527 | 35019 ft | 444 kts | 129° |
| 2026-04-25 16:08 | 40.63319 | 25.69489 | 35024 ft | 443 kts | 129° |
| 2026-04-25 16:09 | 40.59129 | 25.75435 | 35022 ft | 442 kts | 129° |
| 2026-04-25 16:09 | 40.54959 | 25.81341 | 35021 ft | 442 kts | 130° |
| 2026-04-25 16:10 | 40.50762 | 25.87262 | 35015 ft | 442 kts | 129° |
| 2026-04-25 16:10 | 40.46641 | 25.93227 | 35009 ft | 441 kts | 128° |
| 2026-04-25 16:11 | 40.42608 | 25.99336 | 35008 ft | 441 kts | 128° |
| 2026-04-25 16:11 | 40.38616 | 26.05379 | 35008 ft | 441 kts | 128° |
| 2026-04-25 16:12 | 40.34558 | 26.11426 | 35009 ft | 441 kts | 128° |
| 2026-04-25 16:12 | 40.30491 | 26.17453 | 35003 ft | 440 kts | 128° |
| 2026-04-25 16:13 | 40.26451 | 26.23439 | 35000 ft | 440 kts | 128° |
| 2026-04-25 16:13 | 40.22398 | 26.29451 | 35003 ft | 440 kts | 129° |
| 2026-04-25 16:14 | 40.19017 | 26.34456 | 34993 ft | 440 kts | 129° |
| 2026-04-25 16:14 | 40.14291 | 26.41421 | 34995 ft | 440 kts | 129° |
| 2026-04-25 16:15 | 40.10776 | 26.46334 | 34993 ft | 441 kts | 132° |
| 2026-04-25 16:15 | 40.06388 | 26.51909 | 35003 ft | 442 kts | 134° |
| 2026-04-25 16:16 | 40.01941 | 26.57451 | 35002 ft | 442 kts | 134° |
| 2026-04-25 16:16 | 39.97561 | 26.63019 | 35005 ft | 441 kts | 133° |
| 2026-04-25 16:17 | 39.93190 | 26.68640 | 35005 ft | 440 kts | 133° |
| 2026-04-25 16:17 | 39.88822 | 26.74241 | 34996 ft | 440 kts | 133° |
| 2026-04-25 16:18 | 39.84461 | 26.79789 | 34997 ft | 440 kts | 133° |
| 2026-04-25 16:18 | 39.80076 | 26.85361 | 34994 ft | 440 kts | 133° |
| 2026-04-25 16:19 | 39.75693 | 26.90921 | 35009 ft | 439 kts | 134° |
| 2026-04-25 16:19 | 39.71258 | 26.96389 | 35013 ft | 438 kts | 135° |
| 2026-04-25 16:20 | 39.64620 | 27.04453 | 35010 ft | 436 kts | 135° |
| 2026-04-25 16:21 | 39.57975 | 27.12560 | 35002 ft | 436 kts | 135° |
| 2026-04-25 16:21 | 39.53558 | 27.17965 | 35004 ft | 436 kts | 135° |
| 2026-04-25 16:22 | 39.48980 | 27.23044 | 34995 ft | 437 kts | 145° |
| 2026-04-25 16:22 | 39.43690 | 27.26973 | 34986 ft | 437 kts | 149° |
| 2026-04-25 16:23 | 39.38396 | 27.30812 | 34983 ft | 437 kts | 149° |
| 2026-04-25 16:23 | 39.33077 | 27.34666 | 34974 ft | 437 kts | 149° |
| 2026-04-25 16:24 | 39.27794 | 27.38486 | 34969 ft | 437 kts | 149° |
| 2026-04-25 16:24 | 39.22490 | 27.42322 | 34970 ft | 437 kts | 148° |
| 2026-04-25 16:25 | 39.17182 | 27.46162 | 34970 ft | 436 kts | 148° |
| 2026-04-25 16:25 | 39.11906 | 27.49968 | 34967 ft | 436 kts | 149° |
| 2026-04-25 16:26 | 39.06604 | 27.53775 | 34969 ft | 436 kts | 149° |
| 2026-04-25 16:26 | 39.01306 | 27.57576 | 34961 ft | 435 kts | 149° |
| 2026-04-25 16:27 | 38.96049 | 27.61350 | 34958 ft | 435 kts | 150° |
| 2026-04-25 16:27 | 38.90746 | 27.65149 | 34951 ft | 435 kts | 150° |
| 2026-04-25 16:28 | 38.85436 | 27.68940 | 34954 ft | 435 kts | 150° |
| 2026-04-25 16:28 | 38.80137 | 27.72713 | 34943 ft | 435 kts | 150° |
| 2026-04-25 16:29 | 38.74867 | 27.76463 | 34946 ft | 436 kts | 150° |
| 2026-04-25 16:29 | 38.69563 | 27.80235 | 34955 ft | 435 kts | 151° |
| 2026-04-25 16:30 | 38.64256 | 27.83997 | 34954 ft | 435 kts | 152° |
| 2026-04-25 16:30 | 38.58979 | 27.87729 | 34959 ft | 434 kts | 152° |
| 2026-04-25 16:31 | 38.53675 | 27.91476 | 34959 ft | 435 kts | 152° |
| 2026-04-25 16:31 | 38.48378 | 27.95221 | 34965 ft | 434 kts | 152° |
| 2026-04-25 16:32 | 38.45925 | 27.96953 | 34966 ft | 434 kts | 151° |
| 2026-04-25 16:35 | 38.40768 | 28.00589 | 34970 ft | 434 kts | 151° |
| 2026-04-25 16:36 | 38.35511 | 28.04281 | 34968 ft | 434 kts | 151° |
| 2026-04-25 16:36 | 38.30207 | 28.07999 | 34948 ft | 436 kts | 151° |
| 2026-04-25 16:37 | 38.24872 | 28.11735 | 34450 ft | 440 kts | 151° |
| 2026-04-25 16:37 | 38.22153 | 28.13635 | 33321 ft | 450 kts | 151° |
| 2026-04-25 16:37 | 38.19427 | 28.15535 | 32498 ft | 451 kts | 150° |
| 2026-04-25 16:37 | 38.16677 | 28.17448 | 31840 ft | 449 kts | 150° |
| 2026-04-25 16:38 | 38.13944 | 28.19354 | 31253 ft | 445 kts | 150° |
| 2026-04-25 16:38 | 38.11236 | 28.21247 | 30700 ft | 442 kts | 150° |
| 2026-04-25 16:38 | 38.08543 | 28.23127 | 30154 ft | 439 kts | 150° |
| 2026-04-25 16:38 | 38.05902 | 28.24968 | 29534 ft | 435 kts | 150° |
| 2026-04-25 16:39 | 38.03250 | 28.26816 | 28910 ft | 431 kts | 150° |
| 2026-04-25 16:39 | 38.00628 | 28.28643 | 28315 ft | 428 kts | 150° |
| 2026-04-25 16:39 | 37.98023 | 28.30454 | 27735 ft | 424 kts | 150° |
| 2026-04-25 16:39 | 37.95475 | 28.32220 | 27209 ft | 420 kts | 150° |
| 2026-04-25 16:40 | 37.92921 | 28.33986 | 26652 ft | 416 kts | 150° |
| 2026-04-25 16:40 | 37.90390 | 28.35738 | 26094 ft | 413 kts | 150° |
| 2026-04-25 16:40 | 37.87879 | 28.37479 | 25544 ft | 410 kts | 150° |
| 2026-04-25 16:40 | 37.85382 | 28.39208 | 25037 ft | 406 kts | 150° |
| 2026-04-25 16:41 | 37.82908 | 28.40918 | 24503 ft | 403 kts | 150° |
| 2026-04-25 16:41 | 37.82077 | 28.41491 | 24291 ft | 403 kts | 150° |
| 2026-04-25 16:41 | 37.75645 | 28.45922 | 23006 ft | 390 kts | 150° |
| 2026-04-25 16:42 | 37.73280 | 28.47553 | 22556 ft | 384 kts | 150° |
| 2026-04-25 16:42 | 37.70950 | 28.49159 | 22111 ft | 378 kts | 150° |
| 2026-04-25 16:42 | 37.68680 | 28.50722 | 21666 ft | 373 kts | 150° |
| 2026-04-25 16:42 | 37.66418 | 28.52276 | 21232 ft | 367 kts | 150° |
| 2026-04-25 16:43 | 37.64186 | 28.53806 | 20791 ft | 363 kts | 150° |
| 2026-04-25 16:43 | 37.61978 | 28.55321 | 20348 ft | 359 kts | 150° |
| 2026-04-25 16:43 | 37.59795 | 28.56820 | 19923 ft | 355 kts | 150° |
| 2026-04-25 16:43 | 37.57635 | 28.58303 | 19497 ft | 352 kts | 150° |
| 2026-04-25 16:44 | 37.55493 | 28.59771 | 19060 ft | 349 kts | 150° |
| 2026-04-25 16:44 | 37.53355 | 28.61235 | 18636 ft | 347 kts | 150° |
| 2026-04-25 16:44 | 37.51236 | 28.62683 | 18199 ft | 345 kts | 150° |
| 2026-04-25 16:44 | 37.49232 | 28.64249 | 17734 ft | 341 kts | 142° |
| 2026-04-25 16:45 | 37.47343 | 28.66045 | 17292 ft | 338 kts | 142° |
| 2026-04-25 16:45 | 37.45473 | 28.67817 | 16875 ft | 334 kts | 143° |
| 2026-04-25 16:45 | 37.43623 | 28.69564 | 16450 ft | 331 kts | 143° |
| 2026-04-25 16:45 | 37.41784 | 28.71300 | 16034 ft | 329 kts | 143° |
| 2026-04-25 16:46 | 37.39956 | 28.73023 | 15630 ft | 327 kts | 143° |
| 2026-04-25 16:46 | 37.38139 | 28.74734 | 15206 ft | 325 kts | 144° |
| 2026-04-25 16:46 | 37.36334 | 28.76435 | 14794 ft | 323 kts | 144° |
| 2026-04-25 16:46 | 37.35748 | 28.76985 | 14662 ft | 322 kts | 144° |
| 2026-04-25 16:47 | 37.32751 | 28.79801 | 13973 ft | 320 kts | 144° |
| 2026-04-25 16:47 | 37.30997 | 28.81452 | 13546 ft | 319 kts | 144° |
| 2026-04-25 16:47 | 37.29223 | 28.83121 | 13119 ft | 317 kts | 144° |
| 2026-04-25 16:47 | 37.27462 | 28.84774 | 12689 ft | 314 kts | 144° |
| 2026-04-25 16:48 | 37.25720 | 28.86410 | 12286 ft | 312 kts | 144° |
| 2026-04-25 16:48 | 37.23980 | 28.88040 | 11869 ft | 311 kts | 144° |
| 2026-04-25 16:48 | 37.22247 | 28.89664 | 11451 ft | 309 kts | 144° |
| 2026-04-25 16:48 | 37.20532 | 28.91273 | 11056 ft | 307 kts | 144° |
| 2026-04-25 16:49 | 37.18817 | 28.92883 | 10617 ft | 305 kts | 144° |
| 2026-04-25 16:49 | 37.17139 | 28.94454 | 10207 ft | 304 kts | 144° |
| 2026-04-25 16:49 | 37.15517 | 28.96086 | 10067 ft | 293 kts | 139° |
| 2026-04-25 16:49 | 37.14027 | 28.97777 | 9938 ft | 283 kts | 140° |
| 2026-04-25 16:50 | 37.12568 | 28.99416 | 9629 ft | 283 kts | 140° |
| 2026-04-25 16:50 | 37.11087 | 29.01073 | 9192 ft | 283 kts | 139° |
| 2026-04-25 16:50 | 37.09636 | 29.02696 | 8978 ft | 275 kts | 139° |
| 2026-04-25 16:50 | 37.08225 | 29.04242 | 8841 ft | 262 kts | 144° |
| 2026-04-25 16:51 | 37.06646 | 29.05185 | 8698 ft | 250 kts | 168° |
| 2026-04-25 16:51 | 37.04932 | 29.05241 | 8375 ft | 247 kts | 191° |
| 2026-04-25 16:51 | 37.03349 | 29.04426 | 8024 ft | 248 kts | 209° |
| 2026-04-25 16:51 | 37.02846 | 29.04050 | 7900 ft | 248 kts | 209° |
| 2026-04-25 16:52 | 37.00361 | 29.02216 | 7243 ft | 249 kts | 208° |
| 2026-04-25 16:52 | 36.98860 | 29.01114 | 6835 ft | 251 kts | 209° |
| 2026-04-25 16:52 | 36.97309 | 28.99977 | 6168 ft | 265 kts | 209° |
| 2026-04-25 16:52 | 36.95681 | 28.98786 | 5607 ft | 273 kts | 210° |
| 2026-04-25 16:53 | 36.92639 | 28.96098 | 4776 ft | 256 kts | 220° |
| 2026-04-25 16:53 | 36.91343 | 28.94712 | 4416 ft | 241 kts | 220° |
| 2026-04-25 16:53 | 36.90094 | 28.93392 | 4052 ft | 228 kts | 220° |
| 2026-04-25 16:54 | 36.88927 | 28.92161 | 3753 ft | 209 kts | 221° |
| 2026-04-25 16:54 | 36.87860 | 28.91036 | 3559 ft | 191 kts | 220° |
| 2026-04-25 16:54 | 36.86873 | 28.89992 | 3498 ft | 183 kts | 221° |
| 2026-04-25 16:54 | 36.85907 | 28.88973 | 3425 ft | 181 kts | 219° |
| 2026-04-25 16:55 | 36.84850 | 28.88132 | 3214 ft | 181 kts | 210° |
| 2026-04-25 16:55 | 36.83777 | 28.87351 | 2914 ft | 173 kts | 210° |
| 2026-04-25 16:55 | 36.82778 | 28.86624 | 2648 ft | 160 kts | 210° |
| 2026-04-25 16:55 | 36.81842 | 28.85942 | 2399 ft | 152 kts | 209° |
| 2026-04-25 16:56 | 36.81241 | 28.85504 | 2253 ft | 150 kts | 209° |
| 2026-04-25 16:56 | 36.80350 | 28.84855 | 2015 ft | 147 kts | 209° |
| 2026-04-25 16:56 | 36.79464 | 28.84210 | 1786 ft | 147 kts | 209° |
| 2026-04-25 16:56 | 36.78577 | 28.83565 | 1561 ft | 148 kts | 210° |
| 2026-04-25 16:57 | 36.77690 | 28.82919 | 1328 ft | 147 kts | 210° |
| 2026-04-25 16:57 | 36.77106 | 28.82496 | 1180 ft | 146 kts | 210° |
| 2026-04-25 16:57 | 36.75933 | 28.81645 | 897 ft | 145 kts | 210° |
| 2026-04-25 16:57 | 36.75073 | 28.81008 | 671 ft | 144 kts | 211° |
| 2026-04-25 16:58 | 36.74229 | 28.80364 | 370 ft | 141 kts | 208° |
| 2026-04-25 16:58 | 36.73325 | 28.79939 | 173 ft | 139 kts | 194° |
| 2026-04-25 16:58 | 36.72390 | 28.79622 | 29 ft | 138 kts | 195° |
| 2026-04-25 16:58 | 36.71589 | 28.79345 | 12 ft | 88 kts | 195° |
| 2026-04-25 16:59 | 36.71253 | 28.79231 | 13 ft | 30 kts | 195° |
| 2026-04-25 16:59 | 36.71037 | 28.79157 | 13 ft | 35 kts | 195° |
| 2026-04-25 16:59 | 36.70790 | 28.79073 | 13 ft | 38 kts | 195° |
| 2026-04-25 16:59 | 36.70608 | 28.78916 | 13 ft | 19 kts | 227° |
| 2026-04-25 17:00 | 36.70594 | 28.78817 | 15 ft | 12 kts | 324° |
| 2026-04-25 17:00 | 36.70714 | 28.78833 | 13 ft | 28 kts | 15° |
| 2026-04-25 17:00 | 36.70939 | 28.78906 | 13 ft | 28 kts | 15° |
| 2026-04-25 17:00 | 36.71131 | 28.78973 | 13 ft | 29 kts | 15° |
| 2026-04-25 17:01 | 36.71323 | 28.79041 | 13 ft | 28 kts | 16° |
| 2026-04-25 17:01 | 36.71512 | 28.79106 | 13 ft | 28 kts | 15° |
| 2026-04-25 17:01 | 36.71697 | 28.79168 | 12 ft | 27 kts | 15° |
| 2026-04-25 17:01 | 36.71851 | 28.79200 | 12 ft | 17 kts | 329° |
| 2026-04-25 17:02 | 36.71894 | 28.79066 | 12 ft | 17 kts | 284° |
| 2026-04-25 17:02 | 36.71961 | 28.79037 | 12 ft | 11 kts | 14° |
| 2026-04-25 17:02 | 36.72080 | 28.79078 | 12 ft | 20 kts | 15° |
| 2026-04-25 17:02 | 36.72161 | 28.79105 | 12 ft | 14 kts | 15° |
| 2026-04-25 17:03 | 36.72222 | 28.79052 | 12 ft | 0 kts | 286° |
| 2026-04-25 17:03 | 36.72223 | 28.79047 | 12 ft | 0 kts | 285° |